Time;durP1;ratioP1;P1;durP2;ratioP2;P2;SDS_P1;SDS_P2;PMS_P1;PMS_P2;Temp;Humidity;BMP_temperature;BMP_pressure;BME280_temperature;BME280_humidity;BME280_pressure;Samples;Min_cycle;Max_cycle;Signal;HPM_P1;HPM_P2
2021/05/01 00:00:19;;;;;;;39.00;27.62;;;;;;;6.30;78.85;97625.98;1828408;78;21093;-72
2021/05/01 00:02:47;;;;;;;39.42;23.57;;;;;;;6.33;77.04;97637.59;1832829;77;21097;-72
2021/05/01 00:05:14;;;;;;;40.95;25.60;;;;;;;6.28;76.81;97645.62;1832600;78;21074;-72
2021/05/01 00:07:40;;;;;;;42.48;27.93;;;;;;;6.21;76.76;97642.61;1832753;77;21455;-72
2021/05/01 00:10:07;;;;;;;40.92;26.60;;;;;;;6.21;78.40;97644.50;1832637;78;21510;-73
2021/05/01 00:12:33;;;;;;;49.55;29.37;;;;;;;6.17;78.53;97644.77;1832082;78;21050;-72
2021/05/01 00:15:00;;;;;;;40.23;24.32;;;;;;;6.13;78.25;97647.68;1832643;78;21463;-73
2021/05/01 00:17:26;;;;;;;49.65;28.05;;;;;;;6.08;76.39;97643.63;1832600;77;21558;-72
2021/05/01 00:19:52;;;;;;;38.23;25.25;;;;;;;6.00;76.88;97650.30;1832607;78;21010;-72
2021/05/01 00:22:18;;;;;;;43.63;24.12;;;;;;;5.98;77.99;97656.45;1832615;77;21092;-73
2021/05/01 00:24:44;;;;;;;37.05;23.00;;;;;;;6.03;78.14;97653.00;1832560;78;21038;-72
2021/05/01 00:27:10;;;;;;;33.65;22.48;;;;;;;6.02;78.37;97644.13;1832632;77;21487;-73
2021/05/01 00:29:36;;;;;;;32.48;21.37;;;;;;;6.01;77.94;97647.08;1832620;78;21160;-72
2021/05/01 00:32:03;;;;;;;39.03;24.85;;;;;;;5.98;77.54;97637.63;1832709;77;21022;-72
2021/05/01 00:34:29;;;;;;;43.92;26.77;;;;;;;5.95;80.43;97639.50;1832590;78;21182;-72
2021/05/01 00:36:55;;;;;;;30.95;21.20;;;;;;;5.99;79.68;97643.84;1832555;77;21046;-72
2021/05/01 00:39:22;;;;;;;31.55;20.90;;;;;;;6.02;78.93;97643.31;1832607;78;21529;-72
2021/05/01 00:41:48;;;;;;;34.25;20.60;;;;;;;5.96;78.45;97643.80;1832580;77;21078;-73
2021/05/01 00:44:14;;;;;;;35.68;21.17;;;;;;;5.86;77.53;97640.48;1832640;78;21137;-72
2021/05/01 00:46:40;;;;;;;32.78;20.35;;;;;;;5.76;78.57;97638.27;1804883;78;21194;-73
2021/05/01 00:49:06;;;;;;;37.00;22.60;;;;;;;5.74;78.79;97641.21;1832678;78;21165;-72
2021/05/01 00:51:32;;;;;;;32.88;23.05;;;;;;;5.73;78.40;97636.91;1832558;77;21089;-72
2021/05/01 00:53:59;;;;;;;46.55;24.77;;;;;;;5.75;77.07;97640.14;1832630;78;21145;-72
2021/05/01 00:56:25;;;;;;;43.00;25.62;;;;;;;5.71;76.99;97650.31;1832593;77;21019;-72
2021/05/01 00:58:52;;;;;;;41.70;26.02;;;;;;;5.75;77.66;97657.62;1832676;78;22300;-73
2021/05/01 01:01:18;;;;;;;51.63;28.62;;;;;;;5.87;77.88;97658.23;1826242;77;21034;-72
2021/05/01 01:03:46;;;;;;;36.00;23.07;;;;;;;6.02;77.56;97667.52;1824595;78;21131;-73
2021/05/01 01:06:13;;;;;;;35.28;24.67;;;;;;;6.10;77.53;97659.78;1797594;77;21488;-72
2021/05/01 01:08:41;;;;;;;36.98;22.25;;;;;;;6.09;80.84;97654.13;1824754;78;21110;-72
2021/05/01 01:11:07;;;;;;;38.80;26.85;;;;;;;6.02;80.89;97648.69;1824684;77;21993;-72
2021/05/01 01:13:33;;;;;;;31.65;21.97;;;;;;;5.99;80.32;97643.84;1824564;78;21541;-72
2021/05/01 01:16:00;;;;;;;36.55;23.10;;;;;;;6.02;78.45;97643.31;1824605;77;21089;-72
2021/05/01 01:18:26;;;;;;;35.65;22.87;;;;;;;5.89;79.62;97648.02;1824585;78;21417;-72
2021/05/01 01:20:52;;;;;;;38.50;24.35;;;;;;;5.93;79.43;97652.40;1824691;77;21019;-72
2021/05/01 01:23:18;;;;;;;40.73;24.92;;;;;;;5.97;78.91;97660.22;1824621;78;21326;-73
2021/05/01 01:25:44;;;;;;;40.00;26.42;;;;;;;6.04;77.90;97658.65;1824632;78;21455;-72
2021/05/01 01:28:11;;;;;;;41.05;26.87;;;;;;;6.00;80.79;97658.38;1824571;77;21117;-72
2021/05/01 01:30:37;;;;;;;41.95;23.57;;;;;;;6.05;80.79;97650.31;1824593;78;21116;-72
2021/05/01 01:33:08;;;;;;;34.03;21.93;;;;;;;6.09;80.68;97640.67;1824708;77;21047;-72
2021/05/01 01:35:35;;;;;;;38.90;23.67;;;;;;;6.11;81.34;97637.19;1824695;78;21254;-71
2021/05/01 01:38:01;;;;;;;38.78;23.90;;;;;;;6.16;81.30;97641.80;1824530;77;21027;-71
2021/05/01 01:40:28;;;;;;;35.28;22.95;;;;;;;6.17;80.41;97636.16;1824673;78;21491;-71
2021/05/01 01:42:54;;;;;;;39.03;24.87;;;;;;;6.23;79.72;97633.74;1824594;77;21003;-71
2021/05/01 01:45:27;;;;;;;32.53;21.20;;;;;;;6.25;79.98;97629.47;1824699;78;21086;-71
2021/05/01 01:47:56;;;;;;;38.98;22.62;;;;;;;6.29;79.00;97631.09;1824699;77;21431;-72
2021/05/01 01:50:22;;;;;;;62.78;32.90;;;;;;;6.28;79.23;97635.66;1823619;78;21027;-72
2021/05/01 01:52:48;;;;;;;46.23;27.15;;;;;;;6.28;80.55;97626.25;1824616;77;21550;-72
2021/05/01 01:55:17;;;;;;;42.25;26.70;;;;;;;6.32;81.75;97617.10;1824550;78;21047;-72
2021/05/01 01:57:44;;;;;;;42.13;25.10;;;;;;;6.40;80.58;97619.30;1824697;77;21015;-71
2021/05/01 02:00:16;;;;;;;37.83;25.72;;;;;;;6.43;80.01;97623.63;1826129;78;21196;-71
2021/05/01 02:02:52;;;;;;;37.05;24.10;;;;;;;6.51;79.40;97627.71;1819274;76;22606;-71
2021/05/01 02:05:18;;;;;;;38.95;23.57;;;;;;;6.38;80.26;97622.80;1785894;80;21047;-72
2021/05/01 02:07:44;;;;;;;31.93;22.62;;;;;;;6.30;82.54;97620.06;1785845;79;21092;-71
2021/05/01 02:10:11;;;;;;;41.35;23.02;;;;;;;6.37;81.30;97620.64;1785824;80;21020;-71
2021/05/01 02:12:39;;;;;;;38.88;23.57;;;;;;;6.43;82.02;97616.09;1785801;79;21058;-71
2021/05/01 02:15:11;;;;;;;32.35;20.17;;;;;;;6.47;82.45;97617.98;1785890;80;21086;-71
2021/05/01 02:17:47;;;;;;;31.90;21.23;;;;;;;6.51;79.77;97602.14;1785570;79;21082;-72
2021/05/01 02:20:16;;;;;;;33.38;19.98;;;;;;;6.47;80.69;97598.34;1785331;80;21283;-72
2021/05/01 02:22:42;;;;;;;36.98;19.98;;;;;;;6.54;79.72;97601.60;1785756;79;21057;-72
2021/05/01 02:25:10;;;;;;;34.03;22.17;;;;;;;6.50;79.16;97605.91;1785931;80;21004;-72
2021/05/01 02:27:36;;;;;;;35.40;22.37;;;;;;;6.45;79.88;97602.64;1785780;79;21110;-72
2021/05/01 02:30:06;;;;;;;34.80;22.90;;;;;;;6.47;80.58;97600.49;1785897;80;21531;-72
2021/05/01 02:32:32;;;;;;;36.23;23.90;;;;;;;6.50;82.81;97602.68;1785791;79;21184;-72
2021/05/01 02:34:58;;;;;;;41.08;27.32;;;;;;;6.59;81.10;97598.94;1785801;80;21134;-72
2021/05/01 02:37:24;;;;;;;40.30;24.30;;;;;;;6.69;80.18;97607.59;1785790;79;21516;-72
2021/05/01 02:39:51;;;;;;;38.85;26.00;;;;;;;6.71;81.52;97603.55;1785832;80;21570;-72
2021/05/01 02:42:17;;;;;;;36.73;24.07;;;;;;;6.76;80.42;97614.34;1785866;79;21082;-73
2021/05/01 02:44:43;;;;;;;35.88;22.98;;;;;;;6.79;80.74;97605.73;1785870;80;21247;-72
2021/05/01 02:47:09;;;;;;;32.03;22.67;;;;;;;6.76;82.81;97607.61;1785737;79;21094;-72
2021/05/01 02:49:35;;;;;;;35.05;23.10;;;;;;;6.72;83.33;97598.97;1785945;80;21568;-73
2021/05/01 02:52:02;;;;;;;37.60;25.00;;;;;;;6.75;81.95;97594.39;1785856;79;21035;-72
2021/05/01 02:54:28;;;;;;;39.55;25.62;;;;;;;6.79;81.30;97587.41;1785840;80;21126;-73
2021/05/01 02:56:54;;;;;;;46.65;29.82;;;;;;;6.79;82.81;97582.84;1785876;79;21243;-72
2021/05/01 02:59:20;;;;;;;40.70;27.35;;;;;;;6.84;82.75;97573.97;1785759;80;21154;-73
2021/05/01 03:01:46;;;;;;;48.90;27.98;;;;;;;6.86;80.80;97581.78;1790830;78;21483;-73
2021/05/01 03:04:13;;;;;;;48.08;30.52;;;;;;;6.89;80.49;97585.28;1797841;79;21169;-72
2021/05/01 03:06:39;;;;;;;52.33;29.92;;;;;;;6.98;80.48;97579.64;1797881;78;21404;-72
2021/05/01 03:09:06;;;;;;;40.85;26.12;;;;;;;7.00;80.27;97571.55;1797848;79;21193;-72
2021/05/01 03:11:32;;;;;;;44.30;28.25;;;;;;;6.94;79.97;97561.86;1797813;78;21126;-72
2021/05/01 03:13:59;;;;;;;42.83;28.00;;;;;;;6.91;79.96;97571.00;1797367;79;21202;-73
2021/05/01 03:16:25;;;;;;;45.75;30.35;;;;;;;6.98;80.12;97573.70;1797206;78;21078;-72
2021/05/01 03:18:51;;;;;;;44.27;28.45;;;;;;;6.97;81.32;97559.16;1797354;79;21157;-72
2021/05/01 03:21:17;;;;;;;48.68;30.95;;;;;;;6.97;81.08;97557.81;1797172;78;22048;-72
2021/05/01 03:23:43;;;;;;;42.43;27.42;;;;;;;7.06;80.32;97557.02;1770579;79;21141;-72
2021/05/01 03:26:10;;;;;;;44.35;29.35;;;;;;;7.03;79.86;97558.11;1797258;78;21226;-73
2021/05/01 03:28:36;;;;;;;45.78;28.17;;;;;;;6.97;79.65;97559.16;1797267;79;21113;-73
2021/05/01 03:31:02;;;;;;;50.95;31.10;;;;;;;6.97;80.03;97554.59;1797285;78;21125;-72
2021/05/01 03:33:28;;;;;;;37.98;27.65;;;;;;;7.08;79.92;97568.87;1797247;79;21190;-73
2021/05/01 03:35:56;;;;;;;47.67;28.92;;;;;;;7.19;80.02;97572.41;1797238;78;21525;-72
2021/05/01 03:38:22;;;;;;;47.45;29.90;;;;;;;7.29;80.00;97572.41;1797234;79;21090;-72
2021/05/01 03:40:50;;;;;;;46.40;28.17;;;;;;;7.39;79.92;97573.75;1797267;78;21110;-73
2021/05/01 03:43:17;;;;;;;45.80;28.62;;;;;;;7.44;80.64;97563.52;1797243;79;21090;-72
2021/05/01 03:45:43;;;;;;;59.85;41.63;;;;;;;7.42;80.36;97557.56;1797235;79;21248;-72
2021/05/01 03:48:10;;;;;;;61.98;42.23;;;;;;;7.38;81.36;97573.48;1797236;78;21412;-72
2021/05/01 03:50:36;;;;;;;59.20;35.43;;;;;;;7.43;80.33;97579.39;1797238;79;21124;-73
2021/05/01 03:53:02;;;;;;;49.30;32.78;;;;;;;7.46;79.99;97578.88;1797281;78;21051;-72
2021/05/01 03:55:28;;;;;;;48.02;33.30;;;;;;;7.41;82.27;97579.67;1797332;79;21554;-72
2021/05/01 03:57:54;;;;;;;45.03;30.15;;;;;;;7.37;81.29;97585.34;1797294;78;22056;-72
2021/05/01 04:00:21;;;;;;;45.78;31.50;;;;;;;7.38;80.95;97578.06;1797149;79;21546;-73
2021/05/01 04:02:47;;;;;;;49.88;30.43;;;;;;;7.41;80.91;97566.73;1788264;78;21115;-72
2021/05/01 04:05:14;;;;;;;52.03;33.83;;;;;;;7.42;80.84;97577.78;1785258;79;21106;-72
2021/05/01 04:07:40;;;;;;;55.45;35.63;;;;;;;7.39;80.41;97579.14;1785172;79;21535;-72
2021/05/01 04:10:07;;;;;;;65.80;41.00;;;;;;;7.46;80.68;97578.88;1754628;80;23807;-73
2021/05/01 04:12:33;;;;;;;67.32;38.80;;;;;;;7.43;80.62;97572.11;1785101;79;21125;-73
2021/05/01 04:14:59;;;;;;;65.80;39.88;;;;;;;7.39;80.41;97579.14;1785284;80;21146;-73
2021/05/01 04:17:25;;;;;;;64.25;39.90;;;;;;;7.47;80.47;97583.19;1785254;79;21074;-73
2021/05/01 04:19:51;;;;;;;56.10;33.63;;;;;;;7.57;80.74;97604.75;1785255;80;21149;-72
2021/05/01 04:22:19;;;;;;;46.63;28.57;;;;;;;7.63;80.70;97597.73;1785145;79;21452;-72
2021/05/01 04:24:45;;;;;;;45.12;27.75;;;;;;;7.59;82.71;97591.80;1785220;80;21094;-73
2021/05/01 04:27:11;;;;;;;43.45;28.02;;;;;;;7.64;81.06;97599.89;1785240;79;21051;-72
2021/05/01 04:29:37;;;;;;;39.00;25.77;;;;;;;7.72;80.88;97602.05;1785202;80;21121;-72
2021/05/01 04:32:04;;;;;;;32.38;24.30;;;;;;;7.83;81.68;97600.14;1785180;79;21075;-72
2021/05/01 04:34:30;;;;;;;38.08;25.52;;;;;;;7.85;81.02;97598.78;1785173;80;21144;-72
2021/05/01 04:36:56;;;;;;;59.27;34.05;;;;;;;7.89;82.02;97603.11;1785181;79;21072;-72
2021/05/01 04:39:22;;;;;;;67.53;59.95;;;;;;;7.86;81.17;97603.13;1785171;80;21181;-73
2021/05/01 04:41:49;;;;;;;77.53;69.27;;;;;;;7.76;83.66;97603.11;1785218;79;21419;-72
2021/05/01 04:44:15;;;;;;;44.23;30.57;;;;;;;7.72;83.67;97602.05;1785307;80;20944;-73
2021/05/01 04:46:41;;;;;;;43.30;28.92;;;;;;;7.74;82.36;97601.77;1785218;79;21195;-73
2021/05/01 04:49:07;;;;;;;33.35;21.68;;;;;;;7.66;84.12;97597.73;1785136;80;21130;-73
2021/05/01 04:51:35;;;;;;;33.60;22.67;;;;;;;7.68;83.48;97600.95;1785232;79;21125;-72
2021/05/01 04:54:03;;;;;;;52.45;24.57;;;;;;;7.69;83.57;97602.60;1785250;80;21067;-72
2021/05/01 04:56:29;;;;;;;33.90;25.60;;;;;;;7.77;82.69;97595.83;1784752;79;21487;-72
2021/05/01 04:58:55;;;;;;;24.75;20.30;;;;;;;7.81;83.44;97598.27;1785303;80;22013;-73
2021/05/01 05:01:22;;;;;;;32.17;21.87;;;;;;;7.86;82.78;97588.80;1784997;79;21062;-73
2021/05/01 05:03:48;;;;;;;31.33;21.60;;;;;;;7.97;82.12;97589.06;1785125;79;21130;-72
2021/05/01 05:06:14;;;;;;;30.02;22.22;;;;;;;8.06;82.11;97581.22;1754657;80;21048;-72
2021/05/01 05:08:40;;;;;;;27.32;20.15;;;;;;;8.20;81.72;97579.55;1785254;80;21027;-72
2021/05/01 05:11:07;;;;;;;33.10;23.98;;;;;;;8.30;81.44;97590.33;1785170;79;21405;-72
2021/05/01 05:13:33;;;;;;;37.67;25.82;;;;;;;8.33;81.35;97593.02;1785055;80;21122;-72
2021/05/01 05:15:59;;;;;;;32.85;26.50;;;;;;;8.32;81.07;97592.20;1785239;79;21554;-72
2021/05/01 05:18:25;;;;;;;35.88;23.20;;;;;;;8.29;80.71;97586.02;1785138;80;21118;-72
2021/05/01 05:20:51;;;;;;;32.42;23.15;;;;;;;8.29;80.50;97590.07;1785256;79;21137;-72
2021/05/01 05:23:18;;;;;;;30.20;22.30;;;;;;;8.29;80.70;97576.58;1785162;80;21188;-72
2021/05/01 05:25:44;;;;;;;38.83;23.32;;;;;;;8.23;81.61;97560.13;1785131;80;21111;-72
2021/05/01 05:28:10;;;;;;;30.95;22.70;;;;;;;8.31;80.91;97572.24;1785172;79;21507;-72
2021/05/01 05:30:37;;;;;;;34.10;22.37;;;;;;;8.38;80.70;97593.05;1785289;80;21114;-72
2021/05/01 05:33:03;;;;;;;37.15;27.37;;;;;;;8.44;80.79;97590.56;1785120;79;21166;-72
2021/05/01 05:35:29;;;;;;;40.65;23.85;;;;;;;8.43;81.29;97588.95;1785138;80;21122;-72
2021/05/01 05:37:55;;;;;;;36.88;25.23;;;;;;;8.47;80.76;97591.39;1785150;79;21082;-72
2021/05/01 05:40:22;;;;;;;32.03;20.68;;;;;;;8.48;80.77;97594.34;1785134;80;21150;-72
2021/05/01 05:42:49;;;;;;;57.70;48.65;;;;;;;8.42;81.61;97595.44;1785061;79;21055;-72
2021/05/01 05:45:24;;;;;;;31.35;23.18;;;;;;;8.34;81.63;97585.18;1785191;80;21095;-72
2021/05/01 05:47:50;;;;;;;31.48;22.62;;;;;;;8.29;81.04;97586.53;1784927;79;21204;-71
2021/05/01 05:50:16;;;;;;;37.10;28.20;;;;;;;8.32;81.01;97582.77;1785187;80;21539;-71
2021/05/01 05:52:42;;;;;;;33.18;24.25;;;;;;;8.33;81.01;97588.42;1785092;79;21086;-71
2021/05/01 05:55:10;;;;;;;34.50;25.08;;;;;;;8.36;81.34;97578.45;1785133;80;21574;-71
2021/05/01 05:57:38;;;;;;;30.92;22.35;;;;;;;8.35;81.61;97578.72;1785090;79;21075;-71
2021/05/01 06:00:06;;;;;;;32.13;23.00;;;;;;;8.37;80.48;97581.95;1785379;80;21587;-71
2021/05/01 06:02:32;;;;;;;34.13;24.20;;;;;;;8.46;80.35;97580.33;1784901;79;21082;-71
2021/05/01 06:05:06;;;;;;;31.90;21.45;;;;;;;8.54;80.86;97582.97;1785138;80;21158;-71
2021/05/01 06:07:42;;;;;;;35.98;21.33;;;;;;;8.61;80.31;97580.77;1785165;79;21519;-72
2021/05/01 06:10:11;;;;;;;34.98;22.77;;;;;;;8.58;80.70;97578.09;1785216;80;21071;-72
2021/05/01 06:12:37;;;;;;;42.20;25.05;;;;;;;8.65;80.12;97580.50;1785291;79;21910;-72
2021/05/01 06:15:08;;;;;;;35.58;25.55;;;;;;;8.71;79.86;97573.97;1754543;80;21150;-72
2021/05/01 06:17:35;;;;;;;35.10;25.20;;;;;;;8.83;80.50;97580.41;1784114;79;21110;-72
2021/05/01 06:20:04;;;;;;;32.28;24.98;;;;;;;9.04;80.13;97581.89;1785116;79;21091;-71
2021/05/01 06:22:30;;;;;;;30.12;23.50;;;;;;;9.29;79.79;97584.41;1785159;79;21086;-71
2021/05/01 06:24:56;;;;;;;35.88;27.45;;;;;;;9.46;79.58;97581.86;1785215;80;22024;-72
2021/05/01 06:27:22;;;;;;;31.55;25.62;;;;;;;9.60;79.15;97571.47;1784960;79;21043;-71
2021/05/01 06:29:49;;;;;;;35.15;25.50;;;;;;;9.75;78.79;97566.47;1785227;80;21095;-71
2021/05/01 06:32:17;;;;;;;36.33;24.47;;;;;;;9.79;78.43;97570.75;1785039;79;21150;-71
2021/05/01 06:34:54;;;;;;;36.88;24.40;;;;;;;9.83;77.67;97554.23;1785221;80;21126;-71
2021/05/01 06:37:21;;;;;;;35.40;24.67;;;;;;;9.65;77.92;97557.08;1754591;80;22879;-70
2021/05/01 06:39:48;;;;;;;31.27;22.32;;;;;;;9.69;78.27;97557.33;1785047;80;21067;-71
2021/05/01 06:42:21;;;;;;;30.27;21.70;;;;;;;9.65;77.88;97545.45;1785090;79;21205;-70
2021/05/01 06:45:16;;;;;;;30.57;21.80;;;;;;;9.66;78.51;97550.59;1785131;79;21485;-71
2021/05/01 06:47:59;;;;;;;27.87;21.27;;;;;;;9.77;78.23;97543.19;1785226;79;21011;-73
2021/05/01 06:50:28;;;;;;;29.15;22.55;;;;;;;9.70;77.92;97540.00;1785399;80;21186;-72
2021/05/01 06:52:57;;;;;;;35.60;25.62;;;;;;;9.63;77.91;97547.64;1785152;79;21119;-71
2021/05/01 06:55:27;;;;;;;41.50;26.62;;;;;;;9.59;78.80;97549.57;1785383;80;21106;-72
2021/05/01 06:57:54;;;;;;;36.17;25.75;;;;;;;9.73;78.41;97548.89;1784855;79;21551;-72
2021/05/01 07:00:24;;;;;;;32.73;23.95;;;;;;;9.83;77.99;97549.63;1785233;80;21062;-72
2021/05/01 07:02:52;;;;;;;;;;;;;;;9.90;77.85;97543.84;1787797;79;22033;-72
2021/05/01 07:05:23;;;;;;;32.17;24.05;;;;;;;9.99;78.61;97544.83;1783995;80;20238;-72
2021/05/01 07:07:49;;;;;;;33.60;24.43;;;;;;;10.03;78.11;97547.79;1785236;79;21028;-71
2021/05/01 07:10:17;;;;;;;31.97;22.73;;;;;;;10.12;78.17;97553.63;1785269;80;21511;-71
2021/05/01 07:12:44;;;;;;;30.45;22.40;;;;;;;10.05;78.67;97553.72;1785296;79;21094;-71
2021/05/01 07:15:18;;;;;;;33.80;23.42;;;;;;;10.05;78.67;97553.72;1785248;80;21252;-72
2021/05/01 07:17:48;;;;;;;41.48;27.77;;;;;;;10.18;78.41;97557.91;1785153;79;21083;-71
2021/05/01 07:20:14;;;;;;;52.95;36.95;;;;;;;10.21;78.49;97555.71;1785121;80;21530;-72
2021/05/01 07:22:41;;;;;;;32.38;24.02;;;;;;;10.37;77.82;97558.53;1754644;80;21029;-72
2021/05/01 07:25:10;;;;;;;39.18;28.55;;;;;;;10.49;77.64;97557.56;1785272;80;21103;-72
2021/05/01 07:27:43;;;;;;;;;;;;;;;10.69;77.12;97553.25;1787797;79;21242;-72
2021/05/01 07:30:10;;;;;;;33.35;24.75;;;;;;;10.84;76.58;97557.64;1785240;80;20498;-71
2021/05/01 07:32:40;;;;;;;35.15;24.23;;;;;;;11.06;76.29;97556.27;1785154;79;21122;-71
2021/05/01 07:35:07;;;;;;;32.93;23.77;;;;;;;11.16;75.86;97558.81;1785229;80;21098;-72
2021/05/01 07:37:38;;;;;;;34.43;26.10;;;;;;;11.38;75.87;97552.80;1785251;79;21483;-72
2021/05/01 07:40:10;;;;;;;26.93;20.80;;;;;;;11.50;75.48;97557.19;1785326;80;21523;-71
2021/05/01 07:42:44;;;;;;;28.07;21.93;;;;;;;11.54;75.63;97552.25;1785035;79;21574;-72
2021/05/01 07:45:11;;;;;;;33.63;23.98;;;;;;;11.66;75.77;97551.77;1785380;79;21464;-71
2021/05/01 07:47:37;;;;;;;30.45;21.30;;;;;;;11.77;75.36;97555.91;1785150;79;21269;-71
2021/05/01 07:50:04;;;;;;;30.40;24.67;;;;;;;11.99;74.97;97551.77;1785361;80;21134;-71
2021/05/01 07:52:33;;;;;;;32.42;22.87;;;;;;;12.18;74.42;97542.97;1785143;79;21126;-71
2021/05/01 07:54:59;;;;;;;32.33;26.23;;;;;;;12.47;72.97;97552.16;1785420;80;21491;-72
2021/05/01 07:57:25;;;;;;;30.65;24.47;;;;;;;12.75;73.23;97548.88;1785222;79;21507;-72
2021/05/01 07:59:51;;;;;;;37.03;26.75;;;;;;;12.69;72.09;97548.73;1785203;80;21158;-72
2021/05/01 08:02:18;;;;;;;31.42;25.20;;;;;;;12.74;72.47;97555.44;1785162;79;21027;-72
2021/05/01 08:04:44;;;;;;;47.48;34.85;;;;;;;12.62;72.20;97553.77;1799166;79;21202;-72
2021/05/01 08:07:10;;;;;;;83.12;53.92;;;;;;;12.65;72.30;97556.70;1799745;78;21126;-72
2021/05/01 08:09:37;;;;;;;43.50;31.70;;;;;;;12.76;71.64;97555.13;1799733;79;21117;-72
2021/05/01 08:12:03;;;;;;;46.25;33.25;;;;;;;12.94;70.98;97563.69;1799816;78;21136;-72
2021/05/01 08:14:30;;;;;;;115.95;77.15;;;;;;;12.72;70.78;97563.06;1799780;79;21078;-72
2021/05/01 08:16:56;;;;;;;50.95;34.83;;;;;;;12.87;70.97;97572.26;1799713;78;21192;-72
2021/05/01 08:19:22;;;;;;;61.40;44.67;;;;;;;12.80;70.05;97574.59;1799661;79;21038;-72
2021/05/01 08:21:48;;;;;;;77.35;49.90;;;;;;;12.54;70.79;97578.39;1799672;78;21427;-72
2021/05/01 08:24:14;;;;;;;51.08;35.60;;;;;;;12.24;71.29;97579.80;1799667;79;21089;-72
2021/05/01 08:26:40;;;;;;;63.73;48.95;;;;;;;12.48;70.82;97580.98;1799799;78;21400;-72
2021/05/01 08:29:07;;;;;;;41.00;31.52;;;;;;;12.43;70.54;97587.86;1799773;79;21195;-72
2021/05/01 08:31:33;;;;;;;36.68;26.57;;;;;;;12.66;70.21;97590.13;1799722;78;21534;-72
2021/05/01 08:33:59;;;;;;;49.53;36.98;;;;;;;12.68;69.80;97585.98;1799677;79;21031;-72
2021/05/01 08:36:26;;;;;;;36.42;27.40;;;;;;;12.71;68.16;97594.08;1799763;78;21070;-72
2021/05/01 08:38:53;;;;;;;38.28;32.50;;;;;;;12.71;69.20;97605.76;1799723;79;21015;-72
2021/05/01 08:41:19;;;;;;;32.50;26.35;;;;;;;11.91;69.81;97606.20;1799751;78;21969;-72
2021/05/01 08:43:45;;;;;;;37.03;26.23;;;;;;;12.16;70.21;97611.73;1772778;79;21081;-72
2021/05/01 08:46:14;;;;;;;45.73;34.10;;;;;;;11.89;70.70;97606.26;1799662;78;21173;-72
2021/05/01 08:48:44;;;;;;;;;;;;;;;11.63;71.39;97601.22;1802320;79;21487;-71
2021/05/01 08:51:11;;;;;;;95.17;62.50;;;;;;;11.40;71.57;97615.14;1799692;78;20218;-71
2021/05/01 08:53:37;;;;;;;84.58;59.67;;;;;;;11.26;72.43;97606.92;1799672;79;21534;-71
2021/05/01 08:56:04;;;;;;;101.47;63.65;;;;;;;11.66;71.74;97607.95;1799654;78;21581;-71
2021/05/01 08:58:30;;;;;;;176.75;106.67;;;;;;;11.85;70.94;97616.89;1799634;79;21030;-71
2021/05/01 09:00:57;;;;;;;83.27;53.17;;;;;;;11.48;71.87;97622.61;1799684;78;21137;-71
2021/05/01 09:03:23;;;;;;;85.67;60.83;;;;;;;11.22;72.81;97625.45;1795592;79;21134;-71
2021/05/01 09:05:52;;;;;;;45.20;33.58;;;;;;;11.42;72.29;97624.33;1785130;79;21456;-71
2021/05/01 09:08:19;;;;;;;38.38;30.00;;;;;;;11.67;71.09;97627.20;1785194;80;21035;-71
2021/05/01 09:10:50;;;;;;;38.20;28.75;;;;;;;11.97;70.60;97627.30;1785166;80;21130;-71
2021/05/01 09:13:24;;;;;;;39.95;29.57;;;;;;;12.17;70.31;97631.00;1785121;80;21039;-71
2021/05/01 09:16:08;;;;;;;44.10;31.45;;;;;;;12.13;69.96;97636.76;1785246;79;21046;-71
2021/05/01 09:18:50;;;;;;;43.08;31.85;;;;;;;12.03;69.81;97633.67;1785194;80;21133;-72
2021/05/01 09:21:18;;;;;;;40.30;28.67;;;;;;;11.59;70.62;97630.03;1785185;79;21051;-72
2021/05/01 09:23:45;;;;;;;;;;;;;;;11.25;71.69;97636.50;1787718;80;21088;-72
2021/05/01 09:26:11;;;;;;;40.40;28.73;;;;;;;11.39;71.89;97634.42;1785138;79;20225;-72
2021/05/01 09:28:43;;;;;;;40.17;29.50;;;;;;;11.42;71.75;97645.48;1754836;80;21393;-72
2021/05/01 09:31:14;;;;;;;44.65;30.20;;;;;;;11.28;72.49;97650.86;1785161;79;22076;-71
2021/05/01 09:33:43;;;;;;;40.05;29.00;;;;;;;11.11;72.80;97650.55;1785071;80;21059;-71
2021/05/01 09:36:18;;;;;;;37.35;26.20;;;;;;;11.05;72.71;97648.19;1783944;79;21228;-72
2021/05/01 09:38:47;;;;;;;36.50;27.98;;;;;;;11.12;73.23;97650.00;1785105;80;21078;-71
2021/05/01 09:41:19;;;;;;;;;;;;;;;11.27;72.62;97643.79;1787804;79;21035;-71
2021/05/01 09:43:58;;;;;;;38.02;28.73;;;;;;;10.93;74.14;97649.95;1785100;80;21089;-72
2021/05/01 09:46:25;;;;;;;55.63;39.88;;;;;;;10.96;73.90;97651.55;1785065;79;21127;-72
2021/05/01 09:49:15;;;;;;;45.05;32.25;;;;;;;10.99;72.99;97638.76;1785112;80;21034;-72
2021/05/01 09:51:56;;;;;;;81.00;58.20;;;;;;;10.91;74.03;97646.18;1785135;79;21026;-73
2021/05/01 09:54:28;;;;;;;56.18;36.23;;;;;;;10.91;73.22;97657.58;1785110;79;21353;-71
2021/05/01 09:56:57;;;;;;;47.05;32.83;;;;;;;10.77;74.78;97647.17;1754691;80;22136;-71
2021/05/01 09:59:46;;;;;;;49.15;32.83;;;;;;;10.83;73.77;97643.31;1785155;80;28414;-71
2021/05/01 10:02:14;;;;;;;47.75;32.05;;;;;;;10.88;75.16;97635.12;1772012;79;21142;-72
2021/05/01 10:04:41;;;;;;;43.42;30.68;;;;;;;10.85;74.49;97629.75;1794697;79;21039;-72
2021/05/01 10:07:10;;;;;;;43.80;30.23;;;;;;;10.90;73.95;97624.23;1799673;78;21090;-72
2021/05/01 10:09:44;;;;;;;54.65;36.05;;;;;;;11.10;73.67;97616.37;1799691;79;21190;-72
2021/05/01 10:12:13;;;;;;;48.08;34.80;;;;;;;11.35;73.19;97610.33;1799588;78;21554;-72
2021/05/01 10:14:50;;;;;;;47.93;34.10;;;;;;;11.31;72.84;97604.70;1799707;79;21022;-72
2021/05/01 10:17:28;;;;;;;54.30;37.83;;;;;;;11.26;73.18;97597.98;1799715;78;21086;-73
2021/05/01 10:20:00;;;;;;;47.90;34.95;;;;;;;11.49;73.54;97590.30;1799650;79;21482;-72
2021/05/01 10:22:40;;;;;;;47.60;35.13;;;;;;;11.54;72.33;97584.81;1799650;78;22038;-71
2021/05/01 10:25:21;;;;;;;54.70;37.00;;;;;;;11.42;72.90;97593.14;1799777;79;21118;-71
2021/05/01 10:30:38;;;;;;;59.53;43.00;;;;;;;12.04;71.32;97608.13;1847664;76;23099;-72
2021/05/01 10:36:23;;;;;;;52.98;35.68;;;;;;;12.54;69.53;97605.56;1843659;76;22348;-72
2021/05/01 10:39:07;;;;;;;50.55;34.27;;;;;;;12.67;70.23;97601.25;1781705;80;20952;-72
2021/05/01 10:41:36;;;;;;;51.80;37.15;;;;;;;12.65;69.60;97606.99;1785960;79;22071;-71
2021/05/01 10:44:06;;;;;;;54.33;38.10;;;;;;;12.28;70.03;97613.95;1785913;80;21165;-71
2021/05/01 10:46:39;;;;;;;53.25;38.63;;;;;;;12.14;69.85;97601.18;1785805;79;21468;-72
2021/05/01 10:49:07;;;;;;;64.15;46.35;;;;;;;12.00;70.30;97598.18;1785823;80;21154;-71
2021/05/01 10:51:43;;;;;;;87.33;51.37;;;;;;;12.10;70.02;97602.87;1755962;80;21102;-71
2021/05/01 10:54:20;;;;;;;66.25;43.70;;;;;;;12.03;71.05;97594.30;1785183;80;21385;-72
2021/05/01 10:56:52;;;;;;;67.47;45.65;;;;;;;12.03;70.95;97601.09;1785605;79;21440;-71
2021/05/01 10:59:29;;;;;;;58.50;41.05;;;;;;;12.11;70.58;97592.80;1848134;76;23154;-72
2021/05/01 11:01:57;;;;;;;70.72;48.28;;;;;;;11.73;71.37;97594.27;1803694;79;25380;-72
2021/05/01 11:04:25;;;;;;;67.03;42.43;;;;;;;11.90;71.16;97586.95;1786020;79;21189;-72
2021/05/01 11:07:19;;;;;;;67.30;44.45;;;;;;;11.81;71.61;97588.73;1786061;79;21519;-72
2021/05/01 11:09:49;;;;;;;69.47;46.65;;;;;;;11.92;70.85;97585.28;1785919;80;21054;-71
2021/05/01 11:12:23;;;;;;;58.48;39.30;;;;;;;12.21;70.61;97583.66;1785847;79;20881;-71
2021/05/01 11:15:02;;;;;;;50.28;36.85;;;;;;;12.33;70.74;97586.70;1785927;80;20913;-72
2021/05/01 11:17:36;;;;;;;63.92;44.23;;;;;;;12.11;70.42;97580.03;1784724;79;21416;-71
2021/05/01 11:20:12;;;;;;;58.15;41.58;;;;;;;11.98;71.09;97591.69;1785871;80;21071;-71
2021/05/01 11:22:41;;;;;;;64.30;45.17;;;;;;;12.20;70.81;97596.99;1785836;79;21075;-72
2021/05/01 11:25:11;;;;;;;68.65;48.55;;;;;;;12.02;71.08;97603.55;1785392;80;21079;-72
2021/05/01 11:27:38;;;;;;;65.85;48.17;;;;;;;12.06;70.45;97607.30;1785819;79;21060;-72
2021/05/01 11:30:06;;;;;;;69.80;48.85;;;;;;;12.14;70.30;97616.67;1785938;80;22173;-72
2021/05/01 11:32:32;;;;;;;93.37;69.20;;;;;;;12.11;70.33;97618.05;1755302;80;20909;-72
2021/05/01 11:35:14;;;;;;;87.40;67.50;;;;;;;11.82;71.08;97628.35;1785916;80;21122;-72